Freeman, Indiana
Current Conditions -  °F | °C
As of 6:53 AM on Tuesday 27 Jan 2015 (Local Time) from KBMG Reporting Station
Haze Haze  
Wind Chill: -6°   Ceiling: 600
Heat Index: -2°   Visibility: 5mi
Dew Point: -3°   Wind: 6mph
Humidity: 92%   Direction: 40°NE
Pressure: 29.96"   Gusts: NA
Location:  39.3008°N, 86.8112°W
Report Text: KBMG 271153Z 04005KT 5SM BR BKN006 OVC010 M02/M03 A2996 RMK AO2 SLP152 60000 T10221033 11022 21028 53018
Loading
Personal Weather Stations






























Interactive Weather Map New forecast layout! Learn more

10-Day Weather Forecast

Advertisements
Track Severe Weather on mobile